Time;durP1;ratioP1;P1;durP2;ratioP2;P2;SDS_P1;SDS_P2;PMS_P1;PMS_P2;Temp;Humidity;BMP_temperature;BMP_pressure;BME280_temperature;BME280_humidity;BME280_pressure;Samples;Min_cycle;Max_cycle;Signal;HPM_P1;HPM_P2
2022/01/16 00:06:50;;;;;;;;;;;2.80;99.90;;;;;;5177838;27;19926;-85
2022/01/16 00:09:17;;;;;;;;;;;2.90;99.90;;;;;;5138455;27;19923;-85
2022/01/16 00:11:44;;;;;;;;;;;2.80;99.90;;;;;;5127050;27;19934;-87
2022/01/16 00:14:11;;;;;;;;;;;2.80;99.90;;;;;;5112496;28;19924;-84
2022/01/16 00:16:39;;;;;;;;;;;2.80;99.90;;;;;;5057664;28;19944;-86
2022/01/16 00:19:06;;;;;;;;;;;2.80;99.90;;;;;;4918483;28;19929;-83
2022/01/16 00:21:35;;;;;;;;;;;2.80;99.90;;;;;;4690281;29;19934;-84
2022/01/16 00:29:03;;;;;;;;;;;2.90;99.90;;;;;;5174107;27;19925;-83
2022/01/16 00:31:30;;;;;;;;;;;2.90;99.90;;;;;;5126104;27;19924;-84
2022/01/16 00:33:56;;;;;;;;;;;2.90;99.90;;;;;;5117133;27;19923;-83
2022/01/16 00:36:23;;;;;;;;;;;2.80;99.90;;;;;;5106551;28;19924;-87
2022/01/16 00:38:50;;;;;;;;;;;2.80;99.90;;;;;;5072020;28;19948;-85
2022/01/16 00:41:18;;;;;;;;;;;2.80;99.90;;;;;;4957052;28;19936;-83
2022/01/16 00:43:46;;;;;;;;;;;2.80;99.90;;;;;;4651579;29;19935;-86
2022/01/16 00:51:17;;;;;;;;;;;2.80;99.90;;;;;;5170020;27;19926;-83
2022/01/16 00:53:44;;;;;;;;;;;2.80;99.90;;;;;;5120493;27;19923;-83
2022/01/16 00:56:11;;;;;;;;;;;2.80;99.90;;;;;;5118671;27;19931;-83
2022/01/16 00:58:38;;;;;;;;;;;2.80;99.90;;;;;;5110191;28;19924;-83
2022/01/16 01:01:05;;;;;;;;;;;2.90;99.90;;;;;;4968005;28;19928;-87
2022/01/16 01:03:32;;;;;;;;;;;2.80;99.90;;;;;;4780359;29;19935;-83
2022/01/16 01:05:58;;;;;;;;;;;2.90;99.90;;;;;;4534893;30;19936;-86
2022/01/16 01:13:33;;;;;;;;;;;2.90;99.90;;;;;;5174807;27;19925;-84
2022/01/16 01:16:03;;;;;;;;;;;2.90;99.90;;;;;;5114378;27;19923;-87
2022/01/16 01:18:30;;;;;;;;;;;2.80;99.90;;;;;;5055726;28;19960;-85
2022/01/16 01:20:58;;;;;;;;;;;2.70;99.90;;;;;;5048502;28;19931;-84
2022/01/16 01:23:25;;;;;;;;;;;2.70;99.90;;;;;;5025204;28;19941;-85
2022/01/16 01:25:51;;;;;;;;;;;2.70;99.90;;;;;;4910435;28;19928;-82
2022/01/16 01:28:18;;;;;;;;;;;2.70;99.90;;;;;;4624126;29;19942;-82
2022/01/16 01:35:53;;;;;;;;;;;2.60;99.90;;;;;;5183777;27;19925;-86
2022/01/16 01:38:20;;;;;;;;;;;2.60;99.90;;;;;;5140815;27;19923;-83
2022/01/16 01:40:48;;;;;;;;;;;2.60;99.90;;;;;;5114602;28;19932;-85
2022/01/16 01:51:32;;;;;;;;;;;2.50;99.90;;;;;;4457000;31;19939;-87
2022/01/16 01:59:04;;;;;;;;;;;2.40;99.90;;;;;;5153690;27;19926;-86
2022/01/16 02:01:31;;;;;;;;;;;2.40;99.90;;;;;;5117607;28;19931;-81
2022/01/16 02:03:58;;;;;;;;;;;2.30;99.90;;;;;;5078657;28;19942;-85
2022/01/16 02:06:26;;;;;;;;;;;2.30;99.90;;;;;;5075461;28;19924;-86
2022/01/16 02:08:53;;;;;;;;;;;2.40;99.90;;;;;;5011957;28;19938;-83
2022/01/16 02:11:24;;;;;;;;;;;2.40;99.90;;;;;;4863294;29;19929;-85
2022/01/16 02:13:56;;;;;;;;;;;2.40;99.90;;;;;;4599346;30;19935;-86
2022/01/16 02:33:24;;;;;;;;;;;2.30;99.90;;;;;;4897275;29;19928;-83
2022/01/16 02:35:53;;;;;;;;;;;2.30;99.90;;;;;;4639955;30;19942;-84
2022/01/16 02:43:30;;;;;;;;;;;2.40;99.90;;;;;;5177067;27;19925;-82
2022/01/16 02:46:35;;;;;;;;;;;2.30;99.90;;;;;;5116150;27;19924;-84
2022/01/16 02:48:56;;;;;;;;;;;2.30;99.90;;;;;;5063206;28;19925;-84
2022/01/16 02:51:24;;;;;;;;;;;2.20;99.90;;;;;;5005028;28;19925;-86
2022/01/16 02:53:50;;;;;;;;;;;2.10;99.90;;;;;;4980949;28;19927;-80
2022/01/16 02:56:18;;;;;;;;;;;2.20;99.90;;;;;;4821185;29;19946;-82
2022/01/16 02:58:46;;;;;;;;;;;2.20;99.90;;;;;;4591906;30;19957;-84
2022/01/16 03:06:20;;;;;;;;;;;2.20;99.90;;;;;;5175646;27;19942;-86
2022/01/16 03:08:46;;;;;;;;;;;2.10;99.90;;;;;;5128228;27;19924;-82
2022/01/16 03:11:23;;;;;;;;;;;2.10;99.90;;;;;;5137225;27;19932;-86
2022/01/16 03:13:50;;;;;;;;;;;2.10;99.90;;;;;;5059198;28;19926;-84
2022/01/16 03:16:17;;;;;;;;;;;2.00;99.90;;;;;;4962875;28;19935;-87
2022/01/16 03:29:15;;;;;;;;;;;1.80;99.90;;;;;;5187981;27;19926;-83
2022/01/16 03:31:41;;;;;;;;;;;1.70;99.90;;;;;;5141591;27;19923;-81
2022/01/16 03:34:08;;;;;;;;;;;1.60;99.90;;;;;;5111385;28;19954;-81
2022/01/16 03:36:35;;;;;;;;;;;1.60;99.90;;;;;;5090536;28;19931;-83
2022/01/16 03:39:01;;;;;;;;;;;1.60;99.90;;;;;;5028479;28;19926;-87
2022/01/16 03:41:29;;;;;;;;;;;1.60;99.90;;;;;;4920962;28;19936;-85
2022/01/16 03:43:58;;;;;;;;;;;1.50;99.90;;;;;;4767147;29;19938;-82
2022/01/16 03:51:30;;;;;;;;;;;1.30;99.90;;;;;;5167571;27;19926;-86
2022/01/16 03:53:57;;;;;;;;;;;1.30;99.90;;;;;;5099794;27;19923;-84
2022/01/16 03:56:23;;;;;;;;;;;1.30;99.90;;;;;;5081384;28;19932;-86
2022/01/16 03:58:50;;;;;;;;;;;1.30;99.90;;;;;;5054348;28;19936;-82
2022/01/16 04:01:17;;;;;;;;;;;1.20;99.90;;;;;;5017220;28;19938;-83
2022/01/16 04:03:43;;;;;;;;;;;1.20;99.90;;;;;;4781097;29;19931;-85
2022/01/16 04:06:10;;;;;;;;;;;1.20;99.90;;;;;;4554704;30;19935;-81
2022/01/16 04:13:49;;;;;;;;;;;1.00;99.90;;;;;;5174329;27;19926;-83
2022/01/16 04:16:16;;;;;;;;;;;1.00;99.90;;;;;;5107567;27;19924;-83
2022/01/16 04:18:43;;;;;;;;;;;1.00;99.90;;;;;;5112768;27;19931;-86
2022/01/16 04:21:09;;;;;;;;;;;1.00;99.90;;;;;;5074647;28;19926;-81
2022/01/16 04:23:36;;;;;;;;;;;1.00;99.90;;;;;;4957188;28;19932;-83
2022/01/16 04:26:03;;;;;;;;;;;1.00;99.90;;;;;;4805617;29;19931;-83
2022/01/16 04:28:29;;;;;;;;;;;0.90;99.90;;;;;;4642802;30;19941;-86
2022/01/16 04:36:01;;;;;;;;;;;0.80;99.90;;;;;;5174300;27;19925;-86
2022/01/16 04:38:28;;;;;;;;;;;0.80;99.90;;;;;;5141411;27;19930;-84
2022/01/16 04:43:50;;;;;;;;;;;0.70;99.90;;;;;;5078209;28;19932;-86
2022/01/16 04:46:18;;;;;;;;;;;0.80;99.90;;;;;;5016143;28;19927;-81
2022/01/16 04:48:44;;;;;;;;;;;0.70;99.90;;;;;;4870278;29;19929;-84
2022/01/16 04:51:12;;;;;;;;;;;0.60;99.90;;;;;;4644378;30;19935;-85
2022/01/16 04:58:44;;;;;;;;;;;0.70;99.90;;;;;;5175610;27;19942;-84
2022/01/16 05:01:11;;;;;;;;;;;0.60;99.90;;;;;;5144096;27;19923;-81
2022/01/16 05:03:38;;;;;;;;;;;0.60;99.90;;;;;;5126886;27;20013;-82
2022/01/16 05:06:05;;;;;;;;;;;0.50;99.90;;;;;;5078578;28;19924;-83
2022/01/16 05:08:31;;;;;;;;;;;0.50;99.90;;;;;;5059655;28;19949;-87
2022/01/16 05:10:58;;;;;;;;;;;0.50;99.90;;;;;;4869247;29;19937;-83
2022/01/16 05:13:30;;;;;;;;;;;0.40;99.90;;;;;;4642389;30;19933;-84
2022/01/16 05:21:21;;;;;;;;;;;0.40;99.90;;;;;;5166203;27;19926;-83
2022/01/16 05:23:48;;;;;;;;;;;0.40;99.90;;;;;;5095040;28;19931;-84
2022/01/16 05:26:17;;;;;;;;;;;0.40;99.90;;;;;;5086826;28;19932;-84
2022/01/16 05:28:44;;;;;;;;;;;0.40;99.90;;;;;;5077228;28;19929;-85
2022/01/16 05:31:10;;;;;;;;;;;0.30;99.90;;;;;;4994959;28;19938;-83
2022/01/16 05:33:37;;;;;;;;;;;0.30;99.90;;;;;;4880935;29;19937;-80
2022/01/16 05:36:04;;;;;;;;;;;0.40;99.90;;;;;;4716990;29;19940;-80
2022/01/16 05:43:33;;;;;;;;;;;0.30;99.90;;;;;;5174627;27;19925;-81
2022/01/16 05:45:59;;;;;;;;;;;0.30;99.90;;;;;;5136426;27;19930;-83
2022/01/16 05:48:27;;;;;;;;;;;0.30;99.90;;;;;;5119274;27;19931;-82
2022/01/16 05:50:54;;;;;;;;;;;0.30;99.90;;;;;;5067067;28;19924;-83
2022/01/16 05:53:20;;;;;;;;;;;0.20;99.90;;;;;;4992614;28;19934;-83
2022/01/16 05:55:47;;;;;;;;;;;0.20;99.90;;;;;;4762063;29;19934;-82
2022/01/16 05:58:14;;;;;;;;;;;0.20;99.90;;;;;;4522913;30;19944;-83
2022/01/16 06:05:47;;;;;;;;;;;0.20;99.90;;;;;;5173975;27;19926;-81
2022/01/16 06:08:14;;;;;;;;;;;0.10;99.90;;;;;;5137061;27;19927;-84
2022/01/16 06:10:41;;;;;;;;;;;0.20;99.90;;;;;;5109246;28;19939;-82
2022/01/16 06:13:07;;;;;;;;;;;0.20;99.90;;;;;;5023636;28;19933;-82
2022/01/16 06:15:34;;;;;;;;;;;0.10;99.90;;;;;;4979918;28;19935;-86
2022/01/16 06:18:01;;;;;;;;;;;0.10;99.90;;;;;;4803281;29;19943;-86
2022/01/16 06:20:28;;;;;;;;;;;0.10;99.90;;;;;;4561697;30;19944;-86
2022/01/16 06:28:01;;;;;;;;;;;0.10;99.90;;;;;;5173691;27;19926;-82
2022/01/16 06:30:27;;;;;;;;;;;0.10;99.90;;;;;;5136348;27;19923;-85
2022/01/16 06:32:54;;;;;;;;;;;0.20;99.90;;;;;;5116042;27;19931;-84
2022/01/16 06:35:21;;;;;;;;;;;0.20;99.90;;;;;;5103635;28;19924;-81
2022/01/16 06:37:48;;;;;;;;;;;0.10;99.90;;;;;;5030662;28;19926;-79
2022/01/16 06:40:15;;;;;;;;;;;0.10;99.90;;;;;;4884879;29;19929;-88
2022/01/16 06:42:42;;;;;;;;;;;0.10;99.90;;;;;;4626427;30;19933;-85
2022/01/16 06:50:15;;;;;;;;;;;0.10;99.90;;;;;;5183543;27;19925;-88
2022/01/16 06:52:42;;;;;;;;;;;0.00;99.90;;;;;;5145202;27;19923;-87
2022/01/16 06:55:09;;;;;;;;;;;0.00;99.90;;;;;;5141826;27;19938;-88
2022/01/16 06:57:36;;;;;;;;;;;0.00;99.90;;;;;;5113644;27;19946;-87
2022/01/16 07:00:03;;;;;;;;;;;-0.10;99.90;;;;;;5040114;28;19933;-86
2022/01/16 07:02:30;;;;;;;;;;;-0.10;99.90;;;;;;4768110;29;19939;-83
2022/01/16 07:04:57;;;;;;;;;;;-0.10;99.90;;;;;;4509637;30;19957;-85
2022/01/16 07:12:29;;;;;;;;;;;-0.10;99.90;;;;;;5168655;27;19926;-86
2022/01/16 07:14:56;;;;;;;;;;;-0.10;99.90;;;;;;5113295;28;19931;-82
2022/01/16 07:17:23;;;;;;;;;;;-0.10;99.90;;;;;;5084541;28;19943;-84
2022/01/16 07:19:49;;;;;;;;;;;-0.10;99.90;;;;;;5080290;28;20037;-86
2022/01/16 07:22:18;;;;;;;;;;;-0.10;99.90;;;;;;5039178;28;19934;-82
2022/01/16 07:24:45;;;;;;;;;;;-0.10;99.90;;;;;;4837166;29;19938;-84
2022/01/16 07:27:11;;;;;;;;;;;-0.10;99.90;;;;;;4625368;30;19933;-84
2022/01/16 07:34:43;;;;;;;;;;;0.00;99.90;;;;;;5184581;27;19926;-80
2022/01/16 07:37:10;;;;;;;;;;;0.00;99.90;;;;;;5134624;27;19923;-82
2022/01/16 07:39:37;;;;;;;;;;;0.10;99.90;;;;;;5112373;28;19946;-82
2022/01/16 07:42:04;;;;;;;;;;;0.00;99.90;;;;;;5021680;28;19933;-85
2022/01/16 07:44:31;;;;;;;;;;;0.00;99.90;;;;;;4932137;28;19935;-86
2022/01/16 07:46:58;;;;;;;;;;;0.10;99.90;;;;;;4726445;29;19933;-86
2022/01/16 07:49:24;;;;;;;;;;;0.20;99.90;;;;;;4517441;30;19944;-86
2022/01/16 07:56:58;;;;;;;;;;;0.20;99.90;;;;;;5173893;27;19946;-85
2022/01/16 07:59:24;;;;;;;;;;;0.20;99.90;;;;;;5137597;27;19923;-83
2022/01/16 08:01:51;;;;;;;;;;;0.20;99.90;;;;;;5127128;27;19931;-85
2022/01/16 08:04:18;;;;;;;;;;;0.20;99.90;;;;;;5098441;28;19925;-84
2022/01/16 08:06:44;;;;;;;;;;;0.20;99.90;;;;;;5011927;28;19931;-87
2022/01/16 08:09:11;;;;;;;;;;;0.30;99.90;;;;;;4878640;29;19929;-81
2022/01/16 08:11:38;;;;;;;;;;;0.30;99.90;;;;;;4636286;29;19958;-82
2022/01/16 08:19:10;;;;;;;;;;;0.30;99.90;;;;;;5174444;27;19930;-82
2022/01/16 08:21:36;;;;;;;;;;;0.40;99.90;;;;;;5126214;27;19924;-85
2022/01/16 08:24:04;;;;;;;;;;;0.40;99.90;;;;;;5095715;28;21029;-84
2022/01/16 08:26:31;;;;;;;;;;;0.40;99.90;;;;;;5059976;28;19925;-83
2022/01/16 08:28:58;;;;;;;;;;;0.60;99.90;;;;;;4974693;28;19927;-81
2022/01/16 08:31:24;;;;;;;;;;;0.60;99.90;;;;;;4824008;29;19938;-81
2022/01/16 08:33:51;;;;;;;;;;;0.60;99.90;;;;;;4593718;30;19936;-81
2022/01/16 08:41:22;;;;;;;;;;;0.90;99.90;;;;;;5157330;27;19938;-83
2022/01/16 08:43:49;;;;;;;;;;;0.80;99.90;;;;;;5112026;27;19924;-82
2022/01/16 08:46:15;;;;;;;;;;;1.00;99.90;;;;;;5068704;28;19939;-86
2022/01/16 08:48:42;;;;;;;;;;;0.80;99.90;;;;;;5067811;28;19925;-83
2022/01/16 08:51:09;;;;;;;;;;;0.90;99.90;;;;;;5000460;28;19938;-85
2022/01/16 08:53:35;;;;;;;;;;;1.10;99.90;;;;;;4817636;29;19931;-83
2022/01/16 08:56:02;;;;;;;;;;;1.30;99.90;;;;;;4584977;30;19937;-81
2022/01/16 09:03:34;;;;;;;;;;;1.40;99.90;;;;;;5160630;27;19929;-85
2022/01/16 09:06:01;;;;;;;;;;;1.50;99.90;;;;;;5117841;27;19923;-86
2022/01/16 09:08:27;;;;;;;;;;;1.50;99.90;;;;;;5091414;28;19932;-87
2022/01/16 09:10:54;;;;;;;;;;;1.30;99.90;;;;;;5062580;28;19925;-86
2022/01/16 09:13:21;;;;;;;;;;;1.20;99.90;;;;;;4918163;28;19999;-84
2022/01/16 09:15:49;;;;;;;;;;;1.30;99.90;;;;;;4697801;29;19933;-84
2022/01/16 09:18:16;;;;;;;;;;;1.40;99.90;;;;;;4484471;31;19944;-85
2022/01/16 09:25:48;;;;;;;;;;;1.40;99.90;;;;;;5168165;27;19926;-83
2022/01/16 09:28:15;;;;;;;;;;;1.40;99.90;;;;;;5100486;28;19923;-82
2022/01/16 09:30:42;;;;;;;;;;;1.40;99.90;;;;;;5075754;27;19946;-83
2022/01/16 09:33:09;;;;;;;;;;;1.30;99.90;;;;;;5073348;28;19932;-82
2022/01/16 09:35:36;;;;;;;;;;;1.30;99.90;;;;;;4971724;28;19928;-81
2022/01/16 09:38:03;;;;;;;;;;;1.40;99.90;;;;;;4860199;29;19929;-81
2022/01/16 09:40:30;;;;;;;;;;;1.30;99.90;;;;;;4759719;29;19943;-82
2022/01/16 09:48:04;;;;;;;;;;;1.30;99.90;;;;;;5174214;27;19926;-85
2022/01/16 09:50:30;;;;;;;;;;;1.30;99.90;;;;;;5139128;27;19923;-86
2022/01/16 09:52:59;;;;;;;;;;;1.50;99.90;;;;;;5116110;27;19931;-86
2022/01/16 09:55:26;;;;;;;;;;;1.60;99.90;;;;;;5110876;28;19924;-82
2022/01/16 09:57:54;;;;;;;;;;;1.70;99.90;;;;;;5049095;28;19933;-84
2022/01/16 10:00:21;;;;;;;;;;;1.80;99.90;;;;;;4893227;29;19980;-81
2022/01/16 10:02:48;;;;;;;;;;;2.00;99.90;;;;;;4621852;30;19935;-83
2022/01/16 10:10:30;;;;;;;;;;;1.90;99.90;;;;;;5173408;27;19942;-85
2022/01/16 10:13:05;;;;;;;;;;;1.80;99.90;;;;;;5114940;27;19924;-84
2022/01/16 10:15:32;;;;;;;;;;;1.40;99.90;;;;;;5094015;28;19923;-83
2022/01/16 10:17:59;;;;;;;;;;;1.40;99.90;;;;;;5051447;28;19933;-86
2022/01/16 10:20:27;;;;;;;;;;;1.40;99.90;;;;;;4945551;28;19929;-84
2022/01/16 10:22:55;;;;;;;;;;;1.50;99.90;;;;;;4757817;29;19946;-83
2022/01/16 10:25:35;;;;;;;;;;;1.50;99.90;;;;;;4512215;30;19940;-85
2022/01/16 10:32:29;;;;;;;;;;;1.50;99.90;;;;;;5158217;27;19926;-83
2022/01/16 10:35:09;;;;;;;;;;;1.50;99.90;;;;;;5117492;28;19931;-84
2022/01/16 10:37:36;;;;;;;;;;;1.60;99.90;;;;;;5102646;28;19931;-84
2022/01/16 10:40:05;;;;;;;;;;;1.60;99.90;;;;;;5071842;28;19925;-82
2022/01/16 10:42:32;;;;;;;;;;;1.60;99.90;;;;;;5003498;28;19926;-84
2022/01/16 10:45:00;;;;;;;;;;;1.40;99.90;;;;;;4824894;29;19931;-83
2022/01/16 10:47:29;;;;;;;;;;;1.50;99.90;;;;;;4574721;30;19948;-81
2022/01/16 10:55:05;;;;;;;;;;;1.20;99.90;;;;;;5177348;27;19925;-84
2022/01/16 10:57:32;;;;;;;;;;;1.20;99.90;;;;;;5141520;27;19930;-82
2022/01/16 11:00:07;;;;;;;;;;;1.10;99.90;;;;;;5136480;27;19924;-83
2022/01/16 11:02:34;;;;;;;;;;;1.10;99.90;;;;;;5036046;28;19933;-83
2022/01/16 11:05:04;;;;;;;;;;;1.00;99.90;;;;;;5011170;28;19927;-82
2022/01/16 11:07:31;;;;;;;;;;;1.00;99.90;;;;;;4800276;29;19938;-85
2022/01/16 11:09:57;;;;;;;;;;;1.00;99.90;;;;;;4602075;30;19976;-85
2022/01/16 11:17:02;;;;;;;;;;;1.10;99.90;;;;;;5176015;27;19926;-82
2022/01/16 11:19:34;;;;;;;;;;;1.20;99.90;;;;;;5139070;27;19923;-83
2022/01/16 11:22:04;;;;;;;;;;;1.20;99.90;;;;;;5095594;28;19931;-83
2022/01/16 11:24:45;;;;;;;;;;;1.20;99.90;;;;;;5017918;28;19925;-82
2022/01/16 11:27:14;;;;;;;;;;;1.30;99.90;;;;;;4944838;28;19935;-83
2022/01/16 11:29:41;;;;;;;;;;;1.30;99.90;;;;;;4724252;29;19946;-83
2022/01/16 11:32:08;;;;;;;;;;;1.40;99.90;;;;;;4525466;31;19942;-83
2022/01/16 11:39:41;;;;;;;;;;;1.40;99.90;;;;;;5185724;27;19925;-80
2022/01/16 11:42:15;;;;;;;;;;;1.50;99.90;;;;;;5138404;27;19938;-80
2022/01/16 11:44:50;;;;;;;;;;;1.50;99.90;;;;;;5084607;28;19925;-79
2022/01/16 11:47:17;;;;;;;;;;;1.50;99.90;;;;;;5065596;28;19932;-83
2022/01/16 11:49:44;;;;;;;;;;;1.50;99.90;;;;;;4983492;28;19927;-87
2022/01/16 11:52:11;;;;;;;;;;;1.50;99.90;;;;;;4855879;29;19929;-90
2022/01/16 11:54:40;;;;;;;;;;;1.50;99.90;;;;;;4605307;29;19936;-84
2022/01/16 12:02:23;;;;;;;;;;;1.50;99.90;;;;;;5158185;27;19930;-87
2022/01/16 12:04:57;;;;;;;;;;;1.60;99.90;;;;;;5115375;27;19923;-86
2022/01/16 12:07:45;;;;;;;;;;;1.60;99.90;;;;;;5075200;28;19932;-84
2022/01/16 12:10:12;;;;;;;;;;;1.70;99.90;;;;;;5034901;28;19932;-83
2022/01/16 12:12:39;;;;;;;;;;;1.70;99.90;;;;;;4940159;28;19929;-81
2022/01/16 12:15:06;;;;;;;;;;;1.70;99.90;;;;;;4687611;30;19939;-83
2022/01/16 12:20:49;;;;;;;;;;;1.70;99.90;;;;;;5183684;27;19926;-83
2022/01/16 12:23:28;;;;;;;;;;;1.70;99.90;;;;;;5117718;27;19924;-83
2022/01/16 12:25:55;;;;;;;;;;;1.80;99.90;;;;;;5091213;28;19932;-83
2022/01/16 12:28:24;;;;;;;;;;;1.80;99.90;;;;;;5029925;28;19933;-85
2022/01/16 12:30:52;;;;;;;;;;;1.80;99.90;;;;;;4922077;28;19928;-85
2022/01/16 12:33:23;;;;;;;;;;;1.80;99.90;;;;;;4746624;29;19932;-83
2022/01/16 12:36:05;;;;;;;;;;;1.80;99.90;;;;;;4390559;31;19941;-89
2022/01/16 12:53:36;;;;;;;;;;;1.90;99.90;;;;;;5192857;27;19925;-82
2022/01/16 12:56:19;;;;;;;;;;;2.10;99.90;;;;;;5157092;27;19923;-83
2022/01/16 12:58:47;;;;;;;;;;;2.10;99.90;;;;;;5088703;28;19924;-83
2022/01/16 13:01:14;;;;;;;;;;;2.20;99.90;;;;;;5025060;28;19926;-88
2022/01/16 13:04:10;;;;;;;;;;;;;;;;;;;;;
2022/01/16 13:06:39;;;;;;;;;;;2.30;99.90;;;;;;4778441;29;19931;-82
2022/01/16 13:14:14;;;;;;;;;;;2.40;99.90;;;;;;5174622;27;19926;-86
2022/01/16 13:16:41;;;;;;;;;;;2.50;99.90;;;;;;5137467;27;19946;-89
2022/01/16 13:19:11;;;;;;;;;;;2.40;99.90;;;;;;5141542;27;19923;-85
2022/01/16 13:21:57;;;;;;;;;;;2.40;99.90;;;;;;5115870;28;19924;-86
2022/01/16 13:24:25;;;;;;;;;;;2.40;99.90;;;;;;5063152;28;19932;-83
2022/01/16 13:26:52;;;;;;;;;;;2.40;99.90;;;;;;4910713;28;19938;-83
2022/01/16 13:29:21;;;;;;;;;;;2.50;99.90;;;;;;4515735;29;19943;-84
2022/01/16 13:36:25;;;;;;;;;;;2.50;99.90;;;;;;5170400;27;19926;-86
2022/01/16 13:38:52;;;;;;;;;;;2.60;99.90;;;;;;5116897;28;19932;-84
2022/01/16 13:41:19;;;;;;;;;;;2.60;99.90;;;;;;5090646;28;19928;-82
2022/01/16 13:43:46;;;;;;;;;;;2.60;99.90;;;;;;5058514;28;19933;-82
2022/01/16 13:46:15;;;;;;;;;;;2.60;99.90;;;;;;4994621;28;19926;-80
2022/01/16 13:48:42;;;;;;;;;;;2.60;99.90;;;;;;4848293;29;19937;-83
2022/01/16 13:51:09;;;;;;;;;;;2.70;99.90;;;;;;4601665;30;19935;-80
2022/01/16 13:58:43;;;;;;;;;;;2.70;99.90;;;;;;5175450;27;19926;-82
2022/01/16 14:01:14;;;;;;;;;;;2.70;99.90;;;;;;5117016;27;19930;-86
2022/01/16 14:03:47;;;;;;;;;;;2.70;99.90;;;;;;5082367;28;19931;-84
2022/01/16 14:06:16;;;;;;;;;;;2.70;99.90;;;;;;5031656;28;19933;-85
2022/01/16 14:08:49;;;;;;;;;;;2.80;99.90;;;;;;4970611;28;19928;-82
2022/01/16 14:11:16;;;;;;;;;;;2.70;99.90;;;;;;4741286;29;19954;-84
2022/01/16 14:13:47;;;;;;;;;;;2.70;99.90;;;;;;4466769;31;19937;-83
2022/01/16 14:24:05;;;;;;;;;;;2.80;99.90;;;;;;5076126;28;19942;-86
2022/01/16 14:26:32;;;;;;;;;;;2.80;99.90;;;;;;5078165;28;19924;-83
2022/01/16 14:28:58;;;;;;;;;;;2.80;99.90;;;;;;5066869;28;19933;-82
2022/01/16 14:31:25;;;;;;;;;;;2.80;99.90;;;;;;4994511;28;19934;-85
2022/01/16 14:33:51;;;;;;;;;;;2.80;99.90;;;;;;4882468;28;19929;-83
2022/01/16 14:36:19;;;;;;;;;;;2.80;99.90;;;;;;4616321;30;19958;-83
2022/01/16 14:43:51;;;;;;;;;;;2.90;99.90;;;;;;5174994;27;19926;-84
2022/01/16 14:46:17;;;;;;;;;;;2.90;99.90;;;;;;5103095;27;19931;-82
2022/01/16 14:48:44;;;;;;;;;;;2.90;99.90;;;;;;5119770;28;19947;-83
2022/01/16 14:51:11;;;;;;;;;;;3.00;99.90;;;;;;5054840;28;19941;-81
2022/01/16 14:53:37;;;;;;;;;;;3.00;99.90;;;;;;4956579;28;19934;-83
2022/01/16 14:56:04;;;;;;;;;;;3.00;99.90;;;;;;4881075;29;19928;-84
2022/01/16 14:58:31;;;;;;;;;;;3.00;99.90;;;;;;4657081;29;19942;-84
2022/01/16 15:06:06;;;;;;;;;;;3.10;99.90;;;;;;5173986;27;19925;-85
2022/01/16 15:08:34;;;;;;;;;;;3.10;99.90;;;;;;5133347;27;19938;-86
2022/01/16 15:11:00;;;;;;;;;;;3.20;99.90;;;;;;5130160;27;19931;-85
2022/01/16 15:13:27;;;;;;;;;;;3.10;99.90;;;;;;5101769;28;19931;-84
2022/01/16 15:15:53;;;;;;;;;;;3.20;99.90;;;;;;5033360;28;19925;-84
2022/01/16 15:18:21;;;;;;;;;;;3.20;99.90;;;;;;4900689;28;19937;-85
2022/01/16 15:20:49;;;;;;;;;;;3.20;99.90;;;;;;4685140;29;19933;-84
2022/01/16 15:27:59;;;;;;;;;;;3.20;99.90;;;;;;5173674;27;19926;-85
2022/01/16 15:30:26;;;;;;;;;;;3.20;99.90;;;;;;5136914;27;19935;-83
2022/01/16 15:32:53;;;;;;;;;;;3.20;99.90;;;;;;5115416;27;19931;-84
2022/01/16 15:35:21;;;;;;;;;;;3.20;99.90;;;;;;5102973;28;19924;-84
2022/01/16 15:37:49;;;;;;;;;;;3.20;99.90;;;;;;5004231;28;20070;-82
2022/01/16 15:40:15;;;;;;;;;;;3.20;99.90;;;;;;4801377;29;19988;-89
2022/01/16 15:42:42;;;;;;;;;;;3.20;99.90;;;;;;4574017;30;19935;-87
2022/01/16 15:50:17;;;;;;;;;;;3.30;99.90;;;;;;5194432;27;19918;-84
2022/01/16 15:52:45;;;;;;;;;;;3.20;99.90;;;;;;5149140;27;19923;-87
2022/01/16 15:55:12;;;;;;;;;;;3.30;99.90;;;;;;5123036;27;19920;-86
2022/01/16 15:57:38;;;;;;;;;;;3.20;99.90;;;;;;5099990;28;19924;-86
2022/01/16 16:00:08;;;;;;;;;;;3.30;99.90;;;;;;5007028;28;19933;-84
2022/01/16 16:02:38;;;;;;;;;;;3.30;99.90;;;;;;4855049;29;19938;-82
2022/01/16 16:05:05;;;;;;;;;;;3.20;99.90;;;;;;4662894;30;19934;-84
2022/01/16 16:07:32;;;;;;;;;;;3.20;99.90;;;;;;4327222;31;19942;-83
2022/01/16 16:15:06;;;;;;;;;;;3.30;99.90;;;;;;5154877;27;19931;-86
2022/01/16 16:17:32;;;;;;;;;;;3.30;99.90;;;;;;5132531;27;19924;-85
2022/01/16 16:19:59;;;;;;;;;;;3.30;99.90;;;;;;5102017;27;19923;-84
2022/01/16 16:22:26;;;;;;;;;;;3.40;99.90;;;;;;5083640;28;19935;-83
2022/01/16 16:24:53;;;;;;;;;;;3.30;99.90;;;;;;4990576;28;19928;-85
2022/01/16 16:27:20;;;;;;;;;;;3.40;99.90;;;;;;4775879;29;19950;-82
2022/01/16 16:29:48;;;;;;;;;;;3.40;99.90;;;;;;4651769;30;19934;-85
2022/01/16 16:37:19;;;;;;;;;;;3.50;99.90;;;;;;5177949;27;19929;-86
2022/01/16 16:39:48;;;;;;;;;;;3.50;99.90;;;;;;5121032;27;19931;-87
2022/01/16 16:42:16;;;;;;;;;;;3.60;99.90;;;;;;5095715;28;19923;-86
2022/01/16 16:44:43;;;;;;;;;;;3.50;99.90;;;;;;5087984;28;19924;-85
2022/01/16 16:47:10;;;;;;;;;;;3.60;99.90;;;;;;5029317;28;19927;-85
2022/01/16 16:49:39;;;;;;;;;;;3.60;99.90;;;;;;4858160;29;19941;-87
2022/01/16 16:52:06;;;;;;;;;;;3.60;99.90;;;;;;4710074;30;19931;-88
2022/01/16 16:59:35;;;;;;;;;;;3.70;99.90;;;;;;5176544;27;19926;-83
2022/01/16 17:02:03;;;;;;;;;;;3.70;99.90;;;;;;5122553;27;19924;-86
2022/01/16 17:04:30;;;;;;;;;;;3.80;99.90;;;;;;5109772;28;19947;-89
2022/01/16 17:06:56;;;;;;;;;;;3.80;99.90;;;;;;5073403;28;19932;-86
2022/01/16 17:09:23;;;;;;;;;;;3.80;99.90;;;;;;5011254;28;19926;-89
2022/01/16 17:11:50;;;;;;;;;;;3.80;99.90;;;;;;4873776;28;19929;-86
2022/01/16 17:14:16;;;;;;;;;;;3.80;99.90;;;;;;4603267;30;19998;-87
2022/01/16 17:21:48;;;;;;;;;;;3.90;99.90;;;;;;5163924;27;19925;-82
2022/01/16 17:24:15;;;;;;;;;;;3.90;99.90;;;;;;5103447;27;19924;-83
2022/01/16 17:26:41;;;;;;;;;;;3.90;99.90;;;;;;5111405;27;19942;-82
2022/01/16 17:29:08;;;;;;;;;;;3.90;99.90;;;;;;5100355;27;19931;-87
2022/01/16 17:31:34;;;;;;;;;;;4.00;99.90;;;;;;5074952;28;19926;-83
2022/01/16 17:34:01;;;;;;;;;;;4.00;99.90;;;;;;4907791;28;19929;-86
2022/01/16 17:36:28;;;;;;;;;;;4.00;99.90;;;;;;4676374;29;19942;-83
2022/01/16 17:57:47;;;;;;;;;;;4.10;99.90;;;;;;5095863;28;19982;-88
2022/01/16 18:00:24;;;;;;;;;;;4.20;99.90;;;;;;5063812;28;19928;-85
2022/01/16 18:02:59;;;;;;;;;;;4.30;99.90;;;;;;5039274;28;19924;-86
2022/01/16 18:05:36;;;;;;;;;;;4.30;99.90;;;;;;5039753;28;19940;-87
2022/01/16 18:08:19;;;;;;;;;;;4.30;99.90;;;;;;5014307;28;19932;-85
2022/01/16 18:10:48;;;;;;;;;;;4.30;99.90;;;;;;4978937;28;19926;-84
2022/01/16 18:13:15;;;;;;;;;;;4.30;99.90;;;;;;4970171;28;19933;-83
2022/01/16 18:15:44;;;;;;;;;;;4.30;99.90;;;;;;4915076;28;19931;-84
2022/01/16 18:18:11;;;;;;;;;;;4.30;99.90;;;;;;4840868;29;19936;-87
2022/01/16 18:20:41;;;;;;;;;;;4.20;99.90;;;;;;4764994;29;20815;-86
2022/01/16 18:23:19;;;;;;;;;;;4.20;99.90;;;;;;4684079;30;19931;-81
2022/01/16 18:30:54;;;;;;;;;;;4.20;99.90;;;;;;5177923;27;19926;-84
2022/01/16 18:33:21;;;;;;;;;;;4.30;99.90;;;;;;5125355;27;19930;-82
2022/01/16 18:35:48;;;;;;;;;;;4.30;99.90;;;;;;5118490;28;19931;-85
2022/01/16 18:38:14;;;;;;;;;;;4.30;99.90;;;;;;5054632;28;19947;-82
2022/01/16 18:40:41;;;;;;;;;;;4.40;99.90;;;;;;4956759;28;19928;-84
2022/01/16 18:43:11;;;;;;;;;;;4.40;99.90;;;;;;4783247;29;19955;-86
2022/01/16 18:45:40;;;;;;;;;;;4.40;99.90;;;;;;4502474;30;19949;-81
2022/01/16 18:53:12;;;;;;;;;;;4.50;99.90;;;;;;5176082;27;19926;-85
2022/01/16 18:55:39;;;;;;;;;;;4.50;99.90;;;;;;5137513;27;19923;-84
2022/01/16 18:58:05;;;;;;;;;;;4.50;99.90;;;;;;5125580;28;19946;-86
2022/01/16 19:00:32;;;;;;;;;;;4.50;99.90;;;;;;5027818;28;19932;-85
2022/01/16 19:02:59;;;;;;;;;;;4.50;99.90;;;;;;4965765;28;19934;-81
2022/01/16 19:05:25;;;;;;;;;;;4.60;99.90;;;;;;4885482;28;19930;-88
2022/01/16 19:07:52;;;;;;;;;;;4.60;99.90;;;;;;4627714;30;19938;-86
2022/01/16 19:15:28;;;;;;;;;;;4.70;99.90;;;;;;5174123;27;19926;-83
2022/01/16 19:17:55;;;;;;;;;;;4.70;99.90;;;;;;5136783;27;19946;-83
2022/01/16 19:20:21;;;;;;;;;;;4.70;99.90;;;;;;5135917;27;19931;-86
2022/01/16 19:22:48;;;;;;;;;;;4.70;99.90;;;;;;5107426;28;19930;-86
2022/01/16 19:25:16;;;;;;;;;;;4.70;99.90;;;;;;5064000;28;19926;-89
2022/01/16 19:27:43;;;;;;;;;;;4.70;99.90;;;;;;4873033;29;19929;-87
2022/01/16 19:30:10;;;;;;;;;;;4.70;99.90;;;;;;4653412;29;19933;-87
2022/01/16 19:37:44;;;;;;;;;;;4.80;99.90;;;;;;5173813;27;19941;-82
2022/01/16 19:40:11;;;;;;;;;;;4.80;99.90;;;;;;5134818;27;19924;-85
2022/01/16 19:42:47;;;;;;;;;;;4.90;99.90;;;;;;5116548;27;19924;-83
2022/01/16 19:45:20;;;;;;;;;;;4.90;99.90;;;;;;5051951;28;19932;-83
2022/01/16 19:47:47;;;;;;;;;;;4.90;99.90;;;;;;4989319;28;19927;-85
2022/01/16 19:50:14;;;;;;;;;;;4.90;99.90;;;;;;4850066;29;19930;-81
2022/01/16 19:52:43;;;;;;;;;;;4.90;99.90;;;;;;4688691;30;19932;-81